createdAt,value
2018-12-21T00:01:25.764Z,19.13
2018-12-21T00:03:54.449Z,19.00
2018-12-21T00:06:23.217Z,17.80
2018-12-21T00:08:51.982Z,19.37
2018-12-21T00:11:20.830Z,18.25
2018-12-21T00:13:49.608Z,18.40
2018-12-21T00:16:18.487Z,19.10
2018-12-21T00:18:47.237Z,17.90
2018-12-21T00:21:21.838Z,18.37
2018-12-21T00:23:46.817Z,17.83
2018-12-21T00:26:15.597Z,18.00
2018-12-21T00:28:44.457Z,18.27
2018-12-21T00:31:18.769Z,18.62
2018-12-21T00:33:53.136Z,19.17
2018-12-21T00:36:27.490Z,18.62
2018-12-21T00:39:01.862Z,18.17
2018-12-21T00:41:29.981Z,17.60
2018-12-21T00:44:05.076Z,19.13
2018-12-21T00:46:38.292Z,19.20
2018-12-21T00:49:07.236Z,17.47
2018-12-21T00:51:36.056Z,18.97
2018-12-21T00:54:04.806Z,18.37
2018-12-21T00:56:33.564Z,19.90
2018-12-21T00:59:02.352Z,20.13
2018-12-21T01:01:31.388Z,18.70
2018-12-21T01:04:00.237Z,18.27
2018-12-21T01:06:28.905Z,18.10
2018-12-21T01:08:57.669Z,18.93
2018-12-21T01:11:26.552Z,18.90
2018-12-21T01:13:55.349Z,18.60
2018-12-21T01:16:24.396Z,19.87
2018-12-21T01:18:53.177Z,19.63
2018-12-21T01:21:21.941Z,18.95
2018-12-21T01:23:50.757Z,18.67
2018-12-21T01:26:19.516Z,18.93
2018-12-21T01:28:48.260Z,19.10
2018-12-21T01:31:17.032Z,20.40
2018-12-21T01:33:45.743Z,19.30
2018-12-21T01:36:14.581Z,18.50
2018-12-21T01:38:43.332Z,20.07
2018-12-21T01:41:12.232Z,18.85
2018-12-21T01:43:41.055Z,19.53
2018-12-21T01:46:09.983Z,19.70
2018-12-21T01:48:38.760Z,18.07
2018-12-21T01:51:07.521Z,19.83
2018-12-21T01:53:36.205Z,18.67
2018-12-21T01:56:05.037Z,18.80
2018-12-21T01:58:33.907Z,18.90
2018-12-21T02:01:02.737Z,18.37
2018-12-21T02:03:31.424Z,19.70
2018-12-21T02:06:00.244Z,17.90
2018-12-21T02:08:28.992Z,17.57
2018-12-21T02:10:57.697Z,18.73
2018-12-21T02:13:27.613Z,18.37
2018-12-21T02:15:57.373Z,18.03
2018-12-21T02:18:26.238Z,18.10
2018-12-21T02:20:54.940Z,18.33
2018-12-21T02:23:23.640Z,18.30
2018-12-21T02:25:52.336Z,18.67
2018-12-21T02:28:21.236Z,18.23
2018-12-21T02:30:50.020Z,16.93
2018-12-21T02:33:18.895Z,18.07
2018-12-21T02:35:47.682Z,16.93
2018-12-21T02:38:16.581Z,17.33
2018-12-21T02:40:45.349Z,18.37
2018-12-21T02:43:14.037Z,17.43
2018-12-21T02:45:42.785Z,16.80
2018-12-21T02:48:11.584Z,17.20
2018-12-21T02:50:40.349Z,16.60
2018-12-21T02:53:09.349Z,17.07
2018-12-21T02:55:38.076Z,18.17
2018-12-21T02:58:06.832Z,17.87
2018-12-21T03:00:35.748Z,18.20
2018-12-21T03:03:04.578Z,17.40
2018-12-21T03:05:33.478Z,17.43
2018-12-21T03:08:02.260Z,16.73
2018-12-21T03:10:32.121Z,17.20
2018-12-21T03:13:00.911Z,16.30
2018-12-21T03:15:29.748Z,17.70
2018-12-21T03:17:58.565Z,17.87
2018-12-21T03:20:27.429Z,17.77
2018-12-21T03:22:56.195Z,18.50
2018-12-21T03:25:25.008Z,18.07
2018-12-21T03:27:53.842Z,16.47
2018-12-21T03:30:22.573Z,18.05
2018-12-21T03:32:51.274Z,18.10
2018-12-21T03:35:20.191Z,18.47
2018-12-21T03:37:49.069Z,16.90
2018-12-21T03:40:17.937Z,17.27
2018-12-21T03:42:46.753Z,17.93
2018-12-21T03:45:15.507Z,17.10
2018-12-21T03:47:44.282Z,16.03
2018-12-21T03:50:13.150Z,16.87
2018-12-21T03:52:42.006Z,17.00
2018-12-21T03:55:10.871Z,16.63
2018-12-21T03:57:39.695Z,16.47
2018-12-21T04:00:08.583Z,17.13
2018-12-21T04:02:37.238Z,17.60
2018-12-21T04:05:06.129Z,17.10
2018-12-21T04:07:34.871Z,17.43
2018-12-21T04:10:04.773Z,17.47
2018-12-21T04:12:33.521Z,16.77
2018-12-21T04:15:02.336Z,16.60
2018-12-21T04:17:31.062Z,16.87
2018-12-21T04:20:00.312Z,14.93
2018-12-21T04:22:33.944Z,15.70
2018-12-21T04:25:00.000Z,15.23
2018-12-21T04:27:28.843Z,16.47
2018-12-21T04:29:57.657Z,15.70
2018-12-21T04:32:26.450Z,16.07
2018-12-21T04:34:55.251Z,15.73
2018-12-21T04:37:24.173Z,16.10
2018-12-21T04:39:52.949Z,16.13
2018-12-21T04:42:21.729Z,15.20
2018-12-21T04:44:50.492Z,14.90
2018-12-21T04:47:19.248Z,15.73
2018-12-21T04:49:47.959Z,14.13
2018-12-21T04:52:16.777Z,15.03
2018-12-21T04:54:45.566Z,15.77
2018-12-21T04:57:14.366Z,14.57
2018-12-21T04:59:43.171Z,16.50
2018-12-21T05:02:12.105Z,15.93
2018-12-21T05:04:40.915Z,15.00
2018-12-21T05:07:12.472Z,14.93
2018-12-21T05:09:40.542Z,15.33
2018-12-21T05:12:09.393Z,17.20
2018-12-21T05:14:38.225Z,16.30
2018-12-21T05:17:07.054Z,15.53
2018-12-21T05:19:35.793Z,15.27
2018-12-21T05:22:04.777Z,15.00
2018-12-21T05:24:33.625Z,14.80
2018-12-21T05:27:02.480Z,14.90
2018-12-21T05:29:31.229Z,15.23
2018-12-21T05:31:59.928Z,14.93
2018-12-21T05:34:28.720Z,15.40
2018-12-21T05:36:57.799Z,13.50
2018-12-21T05:39:26.662Z,13.30
2018-12-21T05:41:55.394Z,14.50
2018-12-21T05:44:24.277Z,13.47
2018-12-21T05:46:53.164Z,13.47
2018-12-21T05:49:21.978Z,13.87
2018-12-21T05:51:50.869Z,13.90
2018-12-21T05:54:19.728Z,15.13
2018-12-21T05:56:48.532Z,13.03
2018-12-21T05:59:17.452Z,13.33
2018-12-21T06:01:46.248Z,13.43
2018-12-21T06:04:15.161Z,13.33
2018-12-21T06:06:43.938Z,12.87
2018-12-21T06:09:12.663Z,13.10
2018-12-21T06:11:41.437Z,13.67
2018-12-21T06:14:10.197Z,12.87
2018-12-21T06:16:38.991Z,14.47
2018-12-21T06:19:07.764Z,13.10
2018-12-21T06:21:37.141Z,12.83
2018-12-21T06:24:05.901Z,12.60
2018-12-21T06:26:34.708Z,12.83
2018-12-21T06:29:04.563Z,12.23
2018-12-21T06:31:33.313Z,12.63
2018-12-21T06:34:02.423Z,12.10
2018-12-21T06:36:31.178Z,12.43
2018-12-21T06:38:59.978Z,11.93
2018-12-21T06:41:28.761Z,13.30
2018-12-21T06:43:57.570Z,12.10
2018-12-21T06:46:26.449Z,12.73
2018-12-21T06:48:55.326Z,11.57
2018-12-21T06:51:24.112Z,12.23
2018-12-21T06:53:52.889Z,11.60
2018-12-21T06:56:21.607Z,10.43
2018-12-21T06:58:50.431Z,11.07
2018-12-21T07:01:19.301Z,11.08
2018-12-21T07:03:50.002Z,10.43
2018-12-21T07:06:18.893Z,10.25
2018-12-21T07:08:48.664Z,9.57
2018-12-21T07:11:17.517Z,10.17
2018-12-21T07:13:46.334Z,11.33
2018-12-21T07:16:15.141Z,9.20
2018-12-21T07:18:44.908Z,9.77
2018-12-21T07:21:13.722Z,9.97
2018-12-21T07:23:43.523Z,8.97
2018-12-21T07:26:12.489Z,9.30
2018-12-21T07:28:41.342Z,10.10
2018-12-21T07:31:10.185Z,9.80
2018-12-21T07:33:38.989Z,10.10
2018-12-21T07:36:08.953Z,10.37
2018-12-21T07:38:37.810Z,9.00
2018-12-21T07:41:06.561Z,10.40
2018-12-21T07:43:35.365Z,9.50
2018-12-21T07:46:04.565Z,9.37
2018-12-21T07:48:33.347Z,10.07
2018-12-21T07:51:02.149Z,9.70
2018-12-21T07:53:35.764Z,9.40
2018-12-21T07:56:01.689Z,9.23
2018-12-21T07:58:30.388Z,9.30
2018-12-21T08:00:59.183Z,10.10
2018-12-21T08:03:28.029Z,10.07
2018-12-21T08:05:56.909Z,8.93
2018-12-21T08:08:26.677Z,9.93
2018-12-21T08:10:55.535Z,9.60
2018-12-21T08:13:24.495Z,9.90
2018-12-21T08:15:53.173Z,9.93
2018-12-21T08:18:21.923Z,9.73
2018-12-21T08:20:50.794Z,9.33
2018-12-21T08:23:19.645Z,8.97
2018-12-21T08:25:48.389Z,10.30
2018-12-21T08:28:17.178Z,10.10
2018-12-21T08:30:46.060Z,9.17
2018-12-21T08:33:14.821Z,9.30
2018-12-21T08:35:43.641Z,9.37
2018-12-21T08:38:12.457Z,11.60
2018-12-21T08:40:41.324Z,9.43
2018-12-21T08:43:10.133Z,9.27
2018-12-21T08:45:38.882Z,9.83
2018-12-21T08:48:07.612Z,9.43
2018-12-21T08:50:36.363Z,9.50
2018-12-21T08:53:05.140Z,9.13
2018-12-21T08:55:33.851Z,9.00
2018-12-21T08:58:03.716Z,8.30
2018-12-21T09:00:32.676Z,8.10
2018-12-21T09:03:01.575Z,7.90
2018-12-21T09:05:30.325Z,8.37
2018-12-21T09:07:59.071Z,7.77
2018-12-21T09:10:27.967Z,7.83
2018-12-21T09:12:56.676Z,7.43
2018-12-21T09:15:25.385Z,8.07
2018-12-21T09:17:54.253Z,9.43
2018-12-21T09:20:23.105Z,8.57
2018-12-21T09:22:51.972Z,8.33
2018-12-21T09:25:20.779Z,8.37
2018-12-21T09:27:49.608Z,7.63
2018-12-21T09:30:18.400Z,7.67
2018-12-21T09:32:47.112Z,7.97
2018-12-21T09:35:16.029Z,8.33
2018-12-21T09:37:44.868Z,7.60
2018-12-21T09:40:13.809Z,8.18
2018-12-21T09:42:42.549Z,7.57
2018-12-21T09:45:12.337Z,7.27
2018-12-21T09:47:41.053Z,6.50
2018-12-21T09:50:10.397Z,7.17
2018-12-21T09:52:39.311Z,7.47
2018-12-21T09:55:09.189Z,7.07
2018-12-21T09:57:38.291Z,6.90
2018-12-21T10:00:10.485Z,6.73
2018-12-21T10:02:39.843Z,5.70
2018-12-21T10:05:11.604Z,6.10
2018-12-21T10:07:40.568Z,5.80
2018-12-21T10:10:09.525Z,7.33
2018-12-21T10:12:38.425Z,6.37
2018-12-21T10:15:08.982Z,6.43
2018-12-21T10:17:37.926Z,5.90
2018-12-21T10:20:08.451Z,6.53
2018-12-21T10:22:37.261Z,6.17
2018-12-21T10:25:06.489Z,6.20
2018-12-21T10:27:35.173Z,6.93
2018-12-21T10:30:06.444Z,6.67
2018-12-21T10:32:35.325Z,5.93
2018-12-21T10:35:04.934Z,6.25
2018-12-21T10:37:33.703Z,5.93
2018-12-21T10:40:02.477Z,7.23
2018-12-21T10:42:31.194Z,5.57
2018-12-21T10:45:00.100Z,6.67
2018-12-21T10:47:28.952Z,6.47
2018-12-21T10:49:57.723Z,6.03
2018-12-21T10:52:26.442Z,6.87
2018-12-21T10:54:55.117Z,6.80
2018-12-21T10:57:23.949Z,6.60
2018-12-21T10:59:52.752Z,6.77
2018-12-21T11:02:21.578Z,6.87
2018-12-21T11:04:50.257Z,7.80
2018-12-21T11:07:19.043Z,7.07
2018-12-21T11:09:48.558Z,7.10
2018-12-21T11:12:18.396Z,7.50
2018-12-21T11:14:47.227Z,8.07
2018-12-21T11:17:15.985Z,8.07
2018-12-21T11:19:44.888Z,7.07
2018-12-21T11:22:13.688Z,8.00
2018-12-21T11:24:42.451Z,7.63
2018-12-21T11:27:11.400Z,7.70
2018-12-21T11:29:40.088Z,7.13
2018-12-21T11:32:08.990Z,7.93
2018-12-21T11:34:37.668Z,6.40
2018-12-21T11:37:06.482Z,6.67
2018-12-21T11:39:35.262Z,9.17
2018-12-21T11:42:04.485Z,6.83
2018-12-21T11:44:33.525Z,7.50
2018-12-21T11:47:02.315Z,7.20
2018-12-21T11:49:32.102Z,7.47
2018-12-21T11:52:01.017Z,6.90
2018-12-21T11:54:29.773Z,6.50
2018-12-21T11:56:58.614Z,6.37
2018-12-21T11:59:28.349Z,6.47
2018-12-21T12:01:57.067Z,7.10
2018-12-21T12:04:25.857Z,7.10
2018-12-21T12:06:54.609Z,7.20
2018-12-21T12:09:23.548Z,7.97
2018-12-21T12:11:52.381Z,7.73
2018-12-21T12:14:21.164Z,10.00
2018-12-21T12:16:49.921Z,8.73
2018-12-21T12:19:18.740Z,8.53
2018-12-21T12:21:47.421Z,7.90
2018-12-21T12:24:16.419Z,8.20
2018-12-21T12:26:45.308Z,7.07
2018-12-21T12:29:14.029Z,8.17
2018-12-21T12:31:43.076Z,7.40
2018-12-21T12:34:12.002Z,7.07
2018-12-21T12:36:40.711Z,6.50
2018-12-21T12:39:09.517Z,7.20
2018-12-21T12:41:38.294Z,6.50
2018-12-21T12:44:07.225Z,6.93
2018-12-21T12:46:35.892Z,6.57
2018-12-21T12:49:05.651Z,7.43
2018-12-21T12:51:35.448Z,6.90
2018-12-21T12:54:04.513Z,6.77
2018-12-21T12:56:33.285Z,7.03
2018-12-21T12:59:02.000Z,7.03
2018-12-21T13:01:30.787Z,7.70
2018-12-21T13:03:59.567Z,6.37
2018-12-21T13:06:28.350Z,6.93
2018-12-21T13:08:58.106Z,7.47
2018-12-21T13:11:26.886Z,6.47
2018-12-21T13:13:57.276Z,7.10
2018-12-21T13:16:25.978Z,6.80
2018-12-21T13:18:55.730Z,6.67
2018-12-21T13:21:24.528Z,6.30
2018-12-21T13:23:54.362Z,6.20
2018-12-21T13:26:23.126Z,6.33
2018-12-21T13:28:51.901Z,6.83
2018-12-21T13:31:20.640Z,7.13
2018-12-21T13:33:49.407Z,6.43
2018-12-21T13:36:19.282Z,6.42
2018-12-21T13:38:48.059Z,6.53
2018-12-21T13:41:16.848Z,6.70
2018-12-21T13:43:45.699Z,7.20
2018-12-21T13:46:14.421Z,6.57
2018-12-21T13:48:43.208Z,6.27
2018-12-21T13:51:12.037Z,6.33
2018-12-21T13:53:40.849Z,6.27
2018-12-21T13:56:09.603Z,5.90
2018-12-21T13:58:38.398Z,6.40
2018-12-21T14:01:07.364Z,6.77
2018-12-21T14:03:36.184Z,6.37
2018-12-21T14:06:04.896Z,6.93
2018-12-21T14:08:33.574Z,6.43
2018-12-21T14:11:02.341Z,6.50
2018-12-21T14:13:31.004Z,6.43
2018-12-21T14:15:59.765Z,5.97
2018-12-21T14:18:28.489Z,6.13
2018-12-21T14:20:57.316Z,5.77
2018-12-21T14:23:26.042Z,6.00
2018-12-21T14:25:54.795Z,6.03
2018-12-21T14:28:23.473Z,6.30
2018-12-21T14:30:52.281Z,6.37
2018-12-21T14:33:21.162Z,6.67
2018-12-21T14:35:49.845Z,6.33
2018-12-21T14:38:18.598Z,6.07
2018-12-21T14:40:48.263Z,6.33
2018-12-21T14:43:17.125Z,5.57
2018-12-21T14:45:45.840Z,6.27
2018-12-21T14:48:14.620Z,5.70
2018-12-21T14:50:43.414Z,5.80
2018-12-21T14:53:12.277Z,5.10
2018-12-21T14:55:41.038Z,5.33
2018-12-21T14:58:09.808Z,5.73
2018-12-21T15:00:38.892Z,5.67
2018-12-21T15:03:07.698Z,5.60
2018-12-21T15:05:36.588Z,5.90
2018-12-21T15:08:05.397Z,6.53
2018-12-21T15:10:34.244Z,5.73
2018-12-21T15:13:03.084Z,5.23
2018-12-21T15:15:31.805Z,5.47
2018-12-21T15:18:00.536Z,5.90
2018-12-21T15:20:29.333Z,5.53
2018-12-21T15:22:58.246Z,6.13
2018-12-21T15:25:27.018Z,5.80
2018-12-21T15:27:57.083Z,6.57
2018-12-21T15:30:26.491Z,6.20
2018-12-21T15:32:55.241Z,5.53
2018-12-21T15:35:23.989Z,6.83
2018-12-21T15:37:52.789Z,7.27
2018-12-21T15:40:21.644Z,5.92
2018-12-21T15:42:50.407Z,6.23
2018-12-21T15:45:19.096Z,7.30
2018-12-21T15:47:47.916Z,8.57
2018-12-21T15:50:16.749Z,7.47
2018-12-21T15:52:45.524Z,10.07
2018-12-21T15:55:14.344Z,7.53
2018-12-21T15:57:43.154Z,6.53
2018-12-21T16:00:14.018Z,7.43
2018-12-21T16:02:45.484Z,6.83
2018-12-21T16:05:15.225Z,6.60
2018-12-21T16:07:44.001Z,7.57
2018-12-21T16:10:12.721Z,7.20
2018-12-21T16:12:41.621Z,7.00
2018-12-21T16:15:10.541Z,7.20
2018-12-21T16:17:39.379Z,6.40
2018-12-21T16:20:12.113Z,7.20
2018-12-21T16:22:42.494Z,7.43
2018-12-21T16:25:11.812Z,7.30
2018-12-21T16:27:40.721Z,8.17
2018-12-21T16:30:11.500Z,7.00
2018-12-21T16:32:40.292Z,7.53
2018-12-21T16:35:09.060Z,7.57
2018-12-21T16:37:37.903Z,7.93
2018-12-21T16:40:08.723Z,8.17
2018-12-21T16:42:37.480Z,7.83
2018-12-21T16:45:08.492Z,8.50
2018-12-21T16:47:37.202Z,8.20
2018-12-21T16:50:09.795Z,9.33
2018-12-21T16:52:38.638Z,9.17
2018-12-21T16:55:07.905Z,8.57
2018-12-21T16:57:36.733Z,8.97
2018-12-21T17:00:09.425Z,8.83
2018-12-21T17:02:39.045Z,8.53
2018-12-21T17:05:07.917Z,9.37
2018-12-21T17:07:36.786Z,9.43
2018-12-21T17:10:09.966Z,8.93
2018-12-21T17:12:38.793Z,9.27
2018-12-21T17:15:08.534Z,14.30
2018-12-21T17:17:37.287Z,9.90
2018-12-21T17:20:07.380Z,8.63
2018-12-21T17:22:36.273Z,7.77
2018-12-21T17:25:06.902Z,8.60
2018-12-21T17:27:35.710Z,7.90
2018-12-21T17:30:06.093Z,8.23
2018-12-21T17:32:34.857Z,8.20
2018-12-21T17:35:05.168Z,8.07
2018-12-21T17:37:34.032Z,8.43
2018-12-21T17:40:02.906Z,8.03
2018-12-21T17:42:31.664Z,8.20
2018-12-21T17:45:00.648Z,7.90
2018-12-21T17:47:29.476Z,7.90
2018-12-21T17:49:58.232Z,6.97
2018-12-21T17:52:27.238Z,8.40
2018-12-21T17:54:56.137Z,7.60
2018-12-21T17:57:24.897Z,7.80
2018-12-21T17:59:53.680Z,8.03
2018-12-21T18:02:22.636Z,8.33
2018-12-21T18:04:51.423Z,7.57
2018-12-21T18:07:20.140Z,8.23
2018-12-21T18:09:48.819Z,7.13
2018-12-21T18:12:18.537Z,7.13
2018-12-21T18:14:47.304Z,6.27
2018-12-21T18:17:16.049Z,7.57
2018-12-21T18:19:44.729Z,7.70
2018-12-21T18:22:17.384Z,7.97
2018-12-21T18:24:49.512Z,8.17
2018-12-21T18:27:18.637Z,8.10
2018-12-21T18:29:47.365Z,8.10
2018-12-21T18:32:30.957Z,7.23
2018-12-21T18:35:04.293Z,7.57
2018-12-21T18:37:38.890Z,7.13
2018-12-21T18:40:08.842Z,6.90
2018-12-21T18:42:37.675Z,8.13
2018-12-21T18:45:06.753Z,7.93
2018-12-21T18:47:35.497Z,7.50
2018-12-21T18:50:04.869Z,8.40
2018-12-21T18:52:33.837Z,7.73
2018-12-21T18:55:02.782Z,9.90
2018-12-21T18:57:31.586Z,7.00
2018-12-21T19:00:00.325Z,7.87
2018-12-21T19:02:29.086Z,7.43
2018-12-21T19:04:57.810Z,7.10
2018-12-21T19:07:26.604Z,6.87
2018-12-21T19:09:55.419Z,6.87
2018-12-21T19:12:24.205Z,6.23
2018-12-21T19:14:52.991Z,6.23
2018-12-21T19:17:21.776Z,5.83
2018-12-21T19:19:50.523Z,6.43
2018-12-21T19:22:19.338Z,5.27
2018-12-21T19:24:48.134Z,5.83
2018-12-21T19:27:17.860Z,5.97
2018-12-21T19:29:46.737Z,5.23
2018-12-21T19:32:15.556Z,5.30
2018-12-21T19:34:44.348Z,4.67
2018-12-21T19:37:13.086Z,4.80
2018-12-21T19:39:41.831Z,5.87
2018-12-21T19:42:10.676Z,3.90
2018-12-21T19:44:39.453Z,4.47
2018-12-21T19:47:08.217Z,3.90
2018-12-21T19:49:37.058Z,4.33
2018-12-21T19:52:05.851Z,3.63
2018-12-21T19:54:34.703Z,4.00
2018-12-21T19:57:08.992Z,3.87
2018-12-21T19:59:37.720Z,4.13
2018-12-21T20:02:06.726Z,4.57
2018-12-21T20:04:36.127Z,3.93
2018-12-21T20:07:05.105Z,3.77
2018-12-21T20:09:33.958Z,3.50
2018-12-21T20:12:02.804Z,3.47
2018-12-21T20:14:31.623Z,2.70
2018-12-21T20:17:00.393Z,2.40
2018-12-21T20:19:29.258Z,2.90
2018-12-21T20:21:58.020Z,2.00
2018-12-21T20:24:30.067Z,2.40
2018-12-21T20:27:02.802Z,3.10
2018-12-21T20:29:31.774Z,3.03
2018-12-21T20:32:01.250Z,3.63
2018-12-21T20:34:30.925Z,3.93
2018-12-21T20:36:59.728Z,4.43
2018-12-21T20:39:29.159Z,3.67
2018-12-21T20:41:58.011Z,3.47
2018-12-21T20:44:26.838Z,2.80
2018-12-21T20:46:56.336Z,2.83
2018-12-21T20:49:25.192Z,2.30
2018-12-21T20:51:54.062Z,2.30
2018-12-21T20:54:22.926Z,2.60
2018-12-21T20:56:54.254Z,2.23
2018-12-21T20:59:24.250Z,2.27
2018-12-21T21:01:53.417Z,2.40
2018-12-21T21:04:22.179Z,2.20
2018-12-21T21:06:51.062Z,2.30
2018-12-21T21:09:19.911Z,2.20
2018-12-21T21:11:48.701Z,1.77
2018-12-21T21:14:18.708Z,1.67
2018-12-21T21:16:47.550Z,1.57
2018-12-21T21:19:16.354Z,1.00
2018-12-21T21:21:45.113Z,1.50
2018-12-21T21:24:13.920Z,0.73
2018-12-21T21:26:42.803Z,0.73
2018-12-21T21:29:11.607Z,0.80
2018-12-21T21:31:43.240Z,0.80
2018-12-21T21:34:12.045Z,0.60
2018-12-21T21:36:40.883Z,0.80
2018-12-21T21:39:09.672Z,0.80
2018-12-21T21:41:38.399Z,0.60
2018-12-21T21:44:07.453Z,0.93
2018-12-21T21:46:36.250Z,2.60
2018-12-21T21:49:05.219Z,0.73
2018-12-21T21:54:33.262Z,0.60
2018-12-21T21:57:02.147Z,0.70
2018-12-21T21:59:30.866Z,0.80
2018-12-21T22:01:59.744Z,0.80
2018-12-21T22:04:28.541Z,0.70
2018-12-21T22:06:57.283Z,1.07
2018-12-21T22:09:25.997Z,1.40
2018-12-21T22:11:54.773Z,0.90
2018-12-21T22:14:23.564Z,1.00
2018-12-21T22:16:52.369Z,1.27
2018-12-21T22:19:21.127Z,1.00
2018-12-21T22:21:49.857Z,0.97
2018-12-21T22:24:18.628Z,2.10
2018-12-21T22:26:47.554Z,2.80
2018-12-21T22:29:16.329Z,1.67
2018-12-21T22:31:45.049Z,1.30
2018-12-21T22:34:13.802Z,1.63
2018-12-21T22:36:42.592Z,2.00
2018-12-21T22:39:11.522Z,2.00
2018-12-21T22:41:40.281Z,2.77
2018-12-21T22:44:09.034Z,2.97
2018-12-21T22:46:37.784Z,3.80
2018-12-21T22:49:06.480Z,4.37
2018-12-21T22:51:35.164Z,5.00
2018-12-21T22:54:04.418Z,4.60
2018-12-21T22:56:33.154Z,5.23
2018-12-21T22:59:01.947Z,5.83
2018-12-21T23:01:30.612Z,6.07
2018-12-21T23:03:59.355Z,7.40
2018-12-21T23:06:28.049Z,7.27
2018-12-21T23:08:56.732Z,7.70
2018-12-21T23:11:25.555Z,7.50
2018-12-21T23:13:54.336Z,6.53
2018-12-21T23:16:23.031Z,6.07
2018-12-21T23:18:51.803Z,6.30
2018-12-21T23:21:20.466Z,6.60
2018-12-21T23:23:49.261Z,5.73
2018-12-21T23:26:17.929Z,7.22
2018-12-21T23:28:46.606Z,7.03
2018-12-21T23:31:15.340Z,7.33
2018-12-21T23:33:44.029Z,7.57
2018-12-21T23:36:12.724Z,8.28
2018-12-21T23:38:41.400Z,7.70
2018-12-21T23:41:10.071Z,8.28
2018-12-21T23:43:43.241Z,8.53
2018-12-21T23:46:09.423Z,7.80
2018-12-21T23:48:38.102Z,7.73
2018-12-21T23:51:06.779Z,7.53
2018-12-21T23:53:35.490Z,7.43
2018-12-21T23:56:11.783Z,7.93
2018-12-21T23:58:35.120Z,8.43
